sensor_id;sensor_type;location;lat;lon;timestamp;pressure;altitude;pressure_sealevel;temperature;humidity
56334;BME280;42240;53.626;55.886;2023-04-29T00:00:16;75971.53;;;-145.10;100.00
56334;BME280;42240;53.626;55.886;2023-04-29T00:01:49;75971.53;;;-145.10;100.00
56334;BME280;42240;53.626;55.886;2023-04-29T00:03:23;75975.50;;;-145.10;100.00
56334;BME280;42240;53.626;55.886;2023-04-29T00:04:57;75979.44;;;-145.10;100.00
56334;BME280;42240;53.626;55.886;2023-04-29T00:06:30;75983.41;;;-145.10;100.00
56334;BME280;42240;53.626;55.886;2023-04-29T00:08:04;75991.31;;;-145.10;100.00
56334;BME280;42240;53.626;55.886;2023-04-29T00:09:37;75995.25;;;-145.10;100.00
56334;BME280;42240;53.626;55.886;2023-04-29T00:11:10;76011.09;;;-145.10;100.00
56334;BME280;42240;53.626;55.886;2023-04-29T00:12:43;76007.13;;;-145.10;100.00
56334;BME280;42240;53.626;55.886;2023-04-29T00:14:16;76009.09;;;-145.10;100.00
56334;BME280;42240;53.626;55.886;2023-04-29T00:15:49;76003.16;;;-145.10;100.00
56334;BME280;42240;53.626;55.886;2023-04-29T00:17:23;76011.09;;;-145.10;100.00
56334;BME280;42240;53.626;55.886;2023-04-29T00:18:56;76046.66;;;-145.10;100.00
56334;BME280;42240;53.626;55.886;2023-04-29T00:20:29;76038.75;;;-145.10;100.00
56334;BME280;42240;53.626;55.886;2023-04-29T00:22:02;76046.66;;;-145.10;100.00
56334;BME280;42240;53.626;55.886;2023-04-29T00:23:34;76050.63;;;-145.10;100.00
56334;BME280;42240;53.626;55.886;2023-04-29T00:25:08;76078.31;;;-145.10;100.00
56334;BME280;42240;53.626;55.886;2023-04-29T00:26:41;76050.63;;;-145.10;100.00
56334;BME280;42240;53.626;55.886;2023-04-29T00:28:13;76046.66;;;-145.10;100.00
56334;BME280;42240;53.626;55.886;2023-04-29T00:29:47;76064.47;;;-145.10;100.00
56334;BME280;42240;53.626;55.886;2023-04-29T00:31:20;76078.31;;;-145.10;100.00
56334;BME280;42240;53.626;55.886;2023-04-29T00:32:53;76066.44;;;-145.10;100.00
56334;BME280;42240;53.626;55.886;2023-04-29T00:34:27;76074.34;;;-145.10;100.00
56334;BME280;42240;53.626;55.886;2023-04-29T00:35:59;76062.50;;;-145.10;100.00
56334;BME280;42240;53.626;55.886;2023-04-29T00:37:33;76064.47;;;-145.10;100.00
56334;BME280;42240;53.626;55.886;2023-04-29T00:39:06;76062.50;;;-145.10;100.00
56334;BME280;42240;53.626;55.886;2023-04-29T00:40:39;76058.53;;;-145.10;100.00
56334;BME280;42240;53.626;55.886;2023-04-29T00:42:12;76058.53;;;-145.10;100.00
56334;BME280;42240;53.626;55.886;2023-04-29T00:43:45;76062.50;;;-145.10;100.00
56334;BME280;42240;53.626;55.886;2023-04-29T00:45:19;76062.50;;;-145.10;100.00
56334;BME280;42240;53.626;55.886;2023-04-29T00:46:51;76058.53;;;-145.10;100.00
56334;BME280;42240;53.626;55.886;2023-04-29T00:48:25;76066.44;;;-145.10;100.00
56334;BME280;42240;53.626;55.886;2023-04-29T00:49:58;76060.50;;;-145.10;100.00
56334;BME280;42240;53.626;55.886;2023-04-29T00:51:31;76046.66;;;-145.10;100.00
56334;BME280;42240;53.626;55.886;2023-04-29T00:53:05;76030.84;;;-145.10;100.00
56334;BME280;42240;53.626;55.886;2023-04-29T00:54:39;76015.03;;;-145.10;100.00
56334;BME280;42240;53.626;55.886;2023-04-29T00:56:12;76009.09;;;-145.10;100.00
56334;BME280;42240;53.626;55.886;2023-04-29T00:57:47;76007.13;;;-145.10;100.00
56334;BME280;42240;53.626;55.886;2023-04-29T00:59:21;76011.09;;;-145.10;100.00
56334;BME280;42240;53.626;55.886;2023-04-29T01:00:55;76020.97;;;-145.10;100.00
56334;BME280;42240;53.626;55.886;2023-04-29T01:02:28;76022.94;;;-145.10;100.00
56334;BME280;42240;53.626;55.886;2023-04-29T01:04:03;75991.31;;;-145.10;100.00
56334;BME280;42240;53.626;55.886;2023-04-29T01:05:37;75904.31;;;-145.10;100.00
56334;BME280;42240;53.626;55.886;2023-04-29T01:11:05;75734.28;;;-145.10;100.00
56334;BME280;42240;53.626;55.886;2023-04-29T01:12:44;75692.78;;;-145.10;100.00
56334;BME280;42240;53.626;55.886;2023-04-29T01:14:21;75617.66;;;-145.10;100.00
56334;BME280;42240;53.626;55.886;2023-04-29T01:16:03;75603.81;;;-145.10;100.00
56334;BME280;42240;53.626;55.886;2023-04-29T01:17:55;75528.69;;;-145.10;97.04
56334;BME280;42240;53.626;55.886;2023-04-29T01:19:38;75465.44;;;-145.10;94.26
56334;BME280;42240;53.626;55.886;2023-04-29T01:21:17;75477.28;;;-145.10;92.42
56334;BME280;42240;53.626;55.886;2023-04-29T01:22:51;75437.75;;;-145.10;90.46
56334;BME280;42240;53.626;55.886;2023-04-29T01:24:24;75394.28;;;-145.10;87.68
56334;BME280;42240;53.626;55.886;2023-04-29T01:25:57;75323.09;;;-145.10;83.79
56334;BME280;42240;53.626;55.886;2023-04-29T01:31:45;75249.97;;;-145.10;75.54
56334;BME280;42240;53.626;55.886;2023-04-29T01:33:45;75240.09;;;-145.10;74.28
56334;BME280;42240;53.626;55.886;2023-04-29T01:37:32;75267.75;;;-145.10;74.00
56334;BME280;42240;53.626;55.886;2023-04-29T01:41:43;75022.66;;;-145.10;63.58
56334;BME280;42240;53.626;55.886;2023-04-29T01:43:29;74959.41;;;-145.10;61.10
56334;BME280;42240;53.626;55.886;2023-04-29T01:45:15;74939.63;;;-145.10;57.75
56334;BME280;42240;53.626;55.886;2023-04-29T01:46:53;74878.34;;;-145.10;56.05
56334;BME280;42240;53.626;55.886;2023-04-29T01:48:34;74848.72;;;-145.10;54.38
56334;BME280;42240;53.626;55.886;2023-04-29T01:50:07;74821.03;;;-145.10;52.31
56334;BME280;42240;53.626;55.886;2023-04-29T01:51:42;74793.38;;;-145.10;50.49
56334;BME280;42240;53.626;55.886;2023-04-29T01:53:15;74769.66;;;-145.10;50.55
56334;BME280;42240;53.626;55.886;2023-04-29T01:54:50;74741.97;;;-145.10;47.99
56334;BME280;42240;53.626;55.886;2023-04-29T01:56:23;74720.25;;;-145.10;47.34
56334;BME280;42240;53.626;55.886;2023-04-29T01:58:15;74724.19;;;-145.10;46.53
56334;BME280;42240;53.626;55.886;2023-04-29T02:00:20;74631.28;;;-145.10;45.40
56334;BME280;42240;53.626;55.886;2023-04-29T02:01:56;74595.72;;;-145.10;44.61
56334;BME280;42240;53.626;55.886;2023-04-29T02:03:31;74564.09;;;-145.10;43.52
56334;BME280;42240;53.626;55.886;2023-04-29T02:05:07;74524.56;;;-145.10;42.87
56334;BME280;42240;53.626;55.886;2023-04-29T02:06:45;74516.66;;;-145.10;42.68
56334;BME280;42240;53.626;55.886;2023-04-29T02:08:21;74512.72;;;-145.10;41.79
56334;BME280;42240;53.626;55.886;2023-04-29T02:09:57;74473.19;;;-145.10;41.97
56334;BME280;42240;53.626;55.886;2023-04-29T02:11:30;74457.38;;;-145.10;41.11
56334;BME280;42240;53.626;55.886;2023-04-29T02:13:03;74427.72;;;-145.10;40.54
56334;BME280;42240;53.626;55.886;2023-04-29T02:14:36;74386.22;;;-145.10;40.07
56334;BME280;42240;53.626;55.886;2023-04-29T02:16:11;74392.16;;;-145.10;40.05
56334;BME280;42240;53.626;55.886;2023-04-29T02:17:51;74398.09;;;-145.10;40.46
56334;BME280;42240;53.626;55.886;2023-04-29T02:19:25;74330.88;;;-145.10;39.73
56334;BME280;42240;53.626;55.886;2023-04-29T02:21:00;74338.78;;;-145.10;39.33
56334;BME280;42240;53.626;55.886;2023-04-29T02:22:36;74291.38;;;-145.10;38.60
56334;BME280;42240;53.626;55.886;2023-04-29T02:24:08;74275.56;;;-145.10;38.48
56334;BME280;42240;53.626;55.886;2023-04-29T02:25:42;74287.41;;;-145.10;38.85
56334;BME280;42240;53.626;55.886;2023-04-29T02:27:15;74212.31;;;-145.10;38.04
56334;BME280;42240;53.626;55.886;2023-04-29T02:28:48;74208.38;;;-145.10;37.31
56334;BME280;42240;53.626;55.886;2023-04-29T02:30:21;74196.50;;;-145.10;36.97
56334;BME280;42240;53.626;55.886;2023-04-29T02:31:54;74188.59;;;-145.10;36.78
56334;BME280;42240;53.626;55.886;2023-04-29T02:33:28;74208.38;;;-145.10;36.75
56334;BME280;42240;53.626;55.886;2023-04-29T02:35:01;74156.97;;;-145.10;36.12
56334;BME280;42240;53.626;55.886;2023-04-29T02:36:34;74190.56;;;-145.10;36.29
56334;BME280;42240;53.626;55.886;2023-04-29T02:38:07;74052.25;;;-145.10;35.69
56334;BME280;42240;53.626;55.886;2023-04-29T02:39:41;74133.28;;;-145.10;35.63
56334;BME280;42240;53.626;55.886;2023-04-29T02:41:17;74058.19;;;-145.10;35.46
56334;BME280;42240;53.626;55.886;2023-04-29T02:42:52;74109.56;;;-145.10;35.30
56334;BME280;42240;53.626;55.886;2023-04-29T02:44:25;74109.56;;;-145.10;35.39
56334;BME280;42240;53.626;55.886;2023-04-29T02:45:59;74113.50;;;-145.10;35.30
56334;BME280;42240;53.626;55.886;2023-04-29T02:47:32;74083.88;;;-145.10;34.90
56334;BME280;42240;53.626;55.886;2023-04-29T02:49:05;74156.97;;;-145.10;35.17
56334;BME280;42240;53.626;55.886;2023-04-29T02:50:39;74162.91;;;-145.10;35.06
56334;BME280;42240;53.626;55.886;2023-04-29T02:52:12;74091.78;;;-145.10;35.27
56334;BME280;42240;53.626;55.886;2023-04-29T02:53:46;74267.66;;;-145.10;36.36
56334;BME280;42240;53.626;55.886;2023-04-29T02:55:19;74178.72;;;-145.10;36.22
56334;BME280;42240;53.626;55.886;2023-04-29T02:56:52;74176.75;;;-145.10;35.99
56334;BME280;42240;53.626;55.886;2023-04-29T02:58:25;74263.69;;;-145.10;36.24
56334;BME280;42240;53.626;55.886;2023-04-29T02:59:59;74322.97;;;-145.10;37.10
56334;BME280;42240;53.626;55.886;2023-04-29T03:01:33;74232.06;;;-145.10;36.59
56334;BME280;42240;53.626;55.886;2023-04-29T03:03:06;74259.75;;;-145.10;36.54
56334;BME280;42240;53.626;55.886;2023-04-29T03:04:40;74287.41;;;-145.10;36.83
56334;BME280;42240;53.626;55.886;2023-04-29T03:06:13;74315.09;;;-145.10;36.94
56334;BME280;42240;53.626;55.886;2023-04-29T03:07:47;74309.16;;;-145.10;36.51
56334;BME280;42240;53.626;55.886;2023-04-29T03:09:20;74485.03;;;-145.10;37.94
56334;BME280;42240;53.626;55.886;2023-04-29T03:10:53;74409.94;;;-145.10;38.33
56334;BME280;42240;53.626;55.886;2023-04-29T03:12:28;74469.22;;;-145.10;37.78
56334;BME280;42240;53.626;55.886;2023-04-29T03:14:01;74459.34;;;-145.10;38.41
56334;BME280;42240;53.626;55.886;2023-04-29T03:15:34;74407.97;;;-145.10;38.49
56334;BME280;42240;53.626;55.886;2023-04-29T03:17:07;74338.78;;;-145.10;37.74
56334;BME280;42240;53.626;55.886;2023-04-29T03:18:40;74439.59;;;-145.10;38.23
56334;BME280;42240;53.626;55.886;2023-04-29T03:20:13;74398.09;;;-145.10;38.29
56334;BME280;42240;53.626;55.886;2023-04-29T03:21:46;74368.44;;;-145.10;38.48
56334;BME280;42240;53.626;55.886;2023-04-29T03:23:19;74253.81;;;-145.10;37.55
56334;BME280;42240;53.626;55.886;2023-04-29T03:24:54;74368.44;;;-145.10;37.71
56334;BME280;42240;53.626;55.886;2023-04-29T03:26:27;74465.28;;;-145.10;38.75
56334;BME280;42240;53.626;55.886;2023-04-29T03:28:00;74338.78;;;-145.10;38.09
56334;BME280;42240;53.626;55.886;2023-04-29T03:29:35;74239.97;;;-145.10;36.88
56334;BME280;42240;53.626;55.886;2023-04-29T03:31:08;74319.03;;;-145.10;37.17
56334;BME280;42240;53.626;55.886;2023-04-29T03:32:43;74267.66;;;-145.10;37.17
56334;BME280;42240;53.626;55.886;2023-04-29T03:34:17;74247.88;;;-145.10;36.40
56334;BME280;42240;53.626;55.886;2023-04-29T03:35:56;74253.81;;;-145.10;36.57
56334;BME280;42240;53.626;55.886;2023-04-29T03:37:40;74245.91;;;-145.10;36.52
56334;BME280;42240;53.626;55.886;2023-04-29T03:39:33;74073.97;;;-145.10;35.72
56334;BME280;42240;53.626;55.886;2023-04-29T03:41:06;73983.09;;;-145.10;34.93
56334;BME280;42240;53.626;55.886;2023-04-29T03:42:40;73965.28;;;-145.10;33.86
56334;BME280;42240;53.626;55.886;2023-04-29T03:44:13;74058.19;;;-145.10;34.40
56334;BME280;42240;53.626;55.886;2023-04-29T03:45:46;73959.38;;;-145.10;34.50
56334;BME280;42240;53.626;55.886;2023-04-29T03:47:23;73939.59;;;-145.10;34.03
56334;BME280;42240;53.626;55.886;2023-04-29T03:48:56;73967.28;;;-145.10;33.64
56334;BME280;42240;53.626;55.886;2023-04-29T03:50:29;73994.94;;;-145.10;34.01
56334;BME280;42240;53.626;55.886;2023-04-29T03:52:03;73900.09;;;-145.10;33.25
56334;BME280;42240;53.626;55.886;2023-04-29T03:53:37;73904.03;;;-145.10;32.92
56334;BME280;42240;53.626;55.886;2023-04-29T03:55:10;73931.69;;;-145.10;33.28
56334;BME280;42240;53.626;55.886;2023-04-29T03:56:44;73882.31;;;-145.10;33.01
56334;BME280;42240;53.626;55.886;2023-04-29T03:58:18;73811.16;;;-145.10;33.13
56334;BME280;42240;53.626;55.886;2023-04-29T03:59:51;73832.91;;;-145.10;33.06
56334;BME280;42240;53.626;55.886;2023-04-29T04:01:25;73963.31;;;-145.10;33.46
56334;BME280;42240;53.626;55.886;2023-04-29T04:02:58;73797.34;;;-145.10;32.77
56334;BME280;42240;53.626;55.886;2023-04-29T04:04:34;73886.25;;;-145.10;32.90
56334;BME280;42240;53.626;55.886;2023-04-29T04:06:08;73943.56;;;-145.10;33.37
56334;BME280;42240;53.626;55.886;2023-04-29T04:07:41;73941.59;;;-145.10;33.62
56334;BME280;42240;53.626;55.886;2023-04-29T04:09:34;73807.22;;;-145.10;33.01
56334;BME280;42240;53.626;55.886;2023-04-29T04:11:08;73949.50;;;-145.10;33.16
56334;BME280;42240;53.626;55.886;2023-04-29T04:12:46;74077.94;;;-145.10;34.74
56334;BME280;42240;53.626;55.886;2023-04-29T04:14:19;74006.78;;;-145.10;33.99
56334;BME280;42240;53.626;55.886;2023-04-29T04:15:53;73987.03;;;-145.10;33.87
56334;BME280;42240;53.626;55.886;2023-04-29T04:17:26;74008.78;;;-145.10;33.76
56334;BME280;42240;53.626;55.886;2023-04-29T04:18:59;73996.91;;;-145.10;33.67
56334;BME280;42240;53.626;55.886;2023-04-29T04:20:35;73913.91;;;-145.10;33.59
56334;BME280;42240;53.626;55.886;2023-04-29T04:22:09;73971.22;;;-145.10;33.58
56334;BME280;42240;53.626;55.886;2023-04-29T04:23:49;74026.56;;;-145.10;34.01
56334;BME280;42240;53.626;55.886;2023-04-29T04:25:26;74068.06;;;-145.10;34.17
56334;BME280;42240;53.626;55.886;2023-04-29T04:27:07;74030.50;;;-145.10;34.19
56334;BME280;42240;53.626;55.886;2023-04-29T04:28:46;74050.28;;;-145.10;34.32
56334;BME280;42240;53.626;55.886;2023-04-29T04:30:30;73991.00;;;-145.10;33.75
56334;BME280;42240;53.626;55.886;2023-04-29T04:32:05;73852.66;;;-145.10;33.52
56334;BME280;42240;53.626;55.886;2023-04-29T04:33:39;73740.03;;;-145.10;32.45
56334;BME280;42240;53.626;55.886;2023-04-29T04:35:13;73745.94;;;-145.10;31.16
56334;BME280;42240;53.626;55.886;2023-04-29T04:36:45;73757.81;;;-145.10;31.10
56334;BME280;42240;53.626;55.886;2023-04-29T04:38:19;73894.16;;;-145.10;31.57
56334;BME280;42240;53.626;55.886;2023-04-29T04:39:52;73909.97;;;-145.10;31.48
56334;BME280;42240;53.626;55.886;2023-04-29T04:41:26;74022.59;;;-145.10;32.52
56334;BME280;42240;53.626;55.886;2023-04-29T04:42:59;74087.81;;;-145.10;33.10
56334;BME280;42240;53.626;55.886;2023-04-29T04:44:32;74156.97;;;-145.10;33.61
56334;BME280;42240;53.626;55.886;2023-04-29T04:46:12;74214.28;;;-145.10;34.13
56334;BME280;42240;53.626;55.886;2023-04-29T04:48:06;74198.47;;;-145.10;33.77
56334;BME280;42240;53.626;55.886;2023-04-29T04:49:42;74285.44;;;-145.10;34.70
56334;BME280;42240;53.626;55.886;2023-04-29T04:51:16;74230.09;;;-145.10;34.36
56334;BME280;42240;53.626;55.886;2023-04-29T04:52:49;74178.72;;;-145.10;34.03
56334;BME280;42240;53.626;55.886;2023-04-29T04:54:44;74247.88;;;-145.10;34.47
56334;BME280;42240;53.626;55.886;2023-04-29T04:56:22;74241.97;;;-145.10;34.22
56334;BME280;42240;53.626;55.886;2023-04-29T04:57:56;74200.47;;;-145.10;34.80
56334;BME280;42240;53.626;55.886;2023-04-29T04:59:32;74222.19;;;-145.10;34.28
56334;BME280;42240;53.626;55.886;2023-04-29T05:01:06;74156.97;;;-145.10;34.19
56334;BME280;42240;53.626;55.886;2023-04-29T05:02:39;74062.13;;;-145.10;33.72
56334;BME280;42240;53.626;55.886;2023-04-29T05:04:12;74054.22;;;-145.10;33.12
56334;BME280;42240;53.626;55.886;2023-04-29T05:05:52;74182.69;;;-145.10;33.85
56334;BME280;42240;53.626;55.886;2023-04-29T05:07:26;74133.28;;;-145.10;33.44
56334;BME280;42240;53.626;55.886;2023-04-29T05:09:08;74151.06;;;-145.10;33.43
56334;BME280;42240;53.626;55.886;2023-04-29T05:10:41;74174.78;;;-145.10;33.49
56334;BME280;42240;53.626;55.886;2023-04-29T05:12:17;74224.19;;;-145.10;34.56
56334;BME280;42240;53.626;55.886;2023-04-29T05:13:50;74089.78;;;-145.10;33.61
56334;BME280;42240;53.626;55.886;2023-04-29T05:15:23;74042.38;;;-145.10;33.40
56334;BME280;42240;53.626;55.886;2023-04-29T05:17:02;74075.97;;;-145.10;32.96
56334;BME280;42240;53.626;55.886;2023-04-29T05:18:36;74164.88;;;-145.10;33.48
56334;BME280;42240;53.626;55.886;2023-04-29T05:20:09;74105.59;;;-145.10;33.47
56334;BME280;42240;53.626;55.886;2023-04-29T05:21:42;74010.75;;;-145.10;32.74
56334;BME280;42240;53.626;55.886;2023-04-29T05:23:16;74030.50;;;-145.10;32.89
56334;BME280;42240;53.626;55.886;2023-04-29T05:24:50;73927.75;;;-145.10;32.65
56334;BME280;42240;53.626;55.886;2023-04-29T05:26:26;73947.50;;;-145.10;32.52
56334;BME280;42240;53.626;55.886;2023-04-29T05:28:04;73848.72;;;-145.10;31.84
56334;BME280;42240;53.626;55.886;2023-04-29T05:29:39;73876.38;;;-145.10;31.70
56334;BME280;42240;53.626;55.886;2023-04-29T05:31:12;73882.31;;;-145.10;31.68
56334;BME280;42240;53.626;55.886;2023-04-29T05:32:45;73868.47;;;-145.10;31.76
56334;BME280;42240;53.626;55.886;2023-04-29T05:34:21;73826.97;;;-145.10;31.72
56334;BME280;42240;53.626;55.886;2023-04-29T05:35:54;73921.81;;;-145.10;31.53
56334;BME280;42240;53.626;55.886;2023-04-29T05:37:27;73919.84;;;-145.10;31.95
56334;BME280;42240;53.626;55.886;2023-04-29T05:39:13;74081.88;;;-145.10;32.57
56334;BME280;42240;53.626;55.886;2023-04-29T05:40:46;74026.56;;;-145.10;32.75
56334;BME280;42240;53.626;55.886;2023-04-29T05:43:00;74010.75;;;-145.10;32.39
56334;BME280;42240;53.626;55.886;2023-04-29T05:44:33;73941.59;;;-145.10;32.12
56334;BME280;42240;53.626;55.886;2023-04-29T05:46:06;73811.16;;;-145.10;31.37
56334;BME280;42240;53.626;55.886;2023-04-29T05:47:39;73815.13;;;-145.10;31.29
56334;BME280;42240;53.626;55.886;2023-04-29T05:49:13;73718.28;;;-145.10;30.87
56334;BME280;42240;53.626;55.886;2023-04-29T05:50:47;73702.47;;;-145.10;30.45
56334;BME280;42240;53.626;55.886;2023-04-29T05:52:21;73662.97;;;-145.10;30.39
56334;BME280;42240;53.626;55.886;2023-04-29T05:53:55;73607.63;;;-145.10;30.38
56334;BME280;42240;53.626;55.886;2023-04-29T05:55:28;73556.25;;;-145.10;29.54
56334;BME280;42240;53.626;55.886;2023-04-29T05:57:02;73548.38;;;-145.10;29.28
56334;BME280;42240;53.626;55.886;2023-04-29T05:58:36;73659.00;;;-145.10;30.04
56334;BME280;42240;53.626;55.886;2023-04-29T06:00:09;73904.03;;;-145.10;30.71
56334;BME280;42240;53.626;55.886;2023-04-29T06:01:45;74042.38;;;-145.10;32.12
56334;BME280;42240;53.626;55.886;2023-04-29T06:03:18;74046.31;;;-145.10;32.11
56334;BME280;42240;53.626;55.886;2023-04-29T06:04:59;74109.56;;;-145.10;32.80
56334;BME280;42240;53.626;55.886;2023-04-29T06:07:13;74113.50;;;-145.10;32.98
56334;BME280;42240;53.626;55.886;2023-04-29T06:09:07;73967.28;;;-145.10;32.28
56334;BME280;42240;53.626;55.886;2023-04-29T06:10:55;73919.84;;;-145.10;32.17
56334;BME280;42240;53.626;55.886;2023-04-29T06:12:30;74044.34;;;-145.10;32.18
56334;BME280;42240;53.626;55.886;2023-04-29T06:14:03;74014.69;;;-145.10;32.21
56334;BME280;42240;53.626;55.886;2023-04-29T06:15:36;74004.81;;;-145.10;32.36
56334;BME280;42240;53.626;55.886;2023-04-29T06:17:09;74008.78;;;-145.10;32.37
56334;BME280;42240;53.626;55.886;2023-04-29T06:18:42;73969.25;;;-145.10;32.00
56334;BME280;42240;53.626;55.886;2023-04-29T06:20:18;74081.88;;;-145.10;32.29
56334;BME280;42240;53.626;55.886;2023-04-29T06:21:51;74099.66;;;-145.10;32.01
56334;BME280;42240;53.626;55.886;2023-04-29T06:23:24;74125.38;;;-145.10;31.82
56334;BME280;42240;53.626;55.886;2023-04-29T06:24:58;74117.47;;;-145.10;32.30
56334;BME280;42240;53.626;55.886;2023-04-29T06:26:44;74277.53;;;-145.10;32.73
56334;BME280;42240;53.626;55.886;2023-04-29T06:28:17;74291.38;;;-145.10;32.87
56334;BME280;42240;53.626;55.886;2023-04-29T06:29:50;74281.47;;;-145.10;33.33
56334;BME280;42240;53.626;55.886;2023-04-29T06:31:24;74360.53;;;-145.10;33.79
56334;BME280;42240;53.626;55.886;2023-04-29T06:32:59;74243.94;;;-145.10;32.83
56334;BME280;42240;53.626;55.886;2023-04-29T06:34:51;74372.41;;;-145.10;33.72
56334;BME280;42240;53.626;55.886;2023-04-29T06:36:31;74441.56;;;-145.10;34.47
56334;BME280;42240;53.626;55.886;2023-04-29T06:38:24;74449.47;;;-145.10;34.79
56334;BME280;42240;53.626;55.886;2023-04-29T06:40:07;74439.59;;;-145.10;34.92
56334;BME280;42240;53.626;55.886;2023-04-29T06:42:03;74388.19;;;-145.10;35.03
56334;BME280;42240;53.626;55.886;2023-04-29T06:44:11;74330.88;;;-145.10;34.48
56334;BME280;42240;53.626;55.886;2023-04-29T06:46:05;74279.50;;;-145.10;34.13
56334;BME280;42240;53.626;55.886;2023-04-29T06:47:44;74271.59;;;-145.10;33.92
56334;BME280;42240;53.626;55.886;2023-04-29T06:49:28;74348.69;;;-145.10;33.92
56334;BME280;42240;53.626;55.886;2023-04-29T06:51:02;74461.31;;;-145.10;34.44
56334;BME280;42240;53.626;55.886;2023-04-29T06:52:38;74524.56;;;-145.10;34.76
56334;BME280;42240;53.626;55.886;2023-04-29T06:54:11;74504.81;;;-145.10;34.91
56334;BME280;42240;53.626;55.886;2023-04-29T06:55:46;74471.22;;;-145.10;34.65
56334;BME280;42240;53.626;55.886;2023-04-29T06:57:19;74536.44;;;-145.10;35.27
56334;BME280;42240;53.626;55.886;2023-04-29T06:58:52;74481.09;;;-145.10;35.15
56334;BME280;42240;53.626;55.886;2023-04-29T07:00:25;74358.56;;;-145.10;34.83
56334;BME280;42240;53.626;55.886;2023-04-29T07:01:59;74402.03;;;-145.10;34.23
56334;BME280;42240;53.626;55.886;2023-04-29T07:03:32;74492.94;;;-145.10;34.60
56334;BME280;42240;53.626;55.886;2023-04-29T07:05:05;74433.66;;;-145.10;34.65
56334;BME280;42240;53.626;55.886;2023-04-29T07:06:39;74433.66;;;-145.10;34.71
56334;BME280;42240;53.626;55.886;2023-04-29T07:08:13;74502.84;;;-145.10;35.19
56334;BME280;42240;53.626;55.886;2023-04-29T07:09:46;74534.44;;;-145.10;35.61
56334;BME280;42240;53.626;55.886;2023-04-29T07:11:20;74532.47;;;-145.10;36.04
56334;BME280;42240;53.626;55.886;2023-04-29T07:12:56;74609.56;;;-145.10;36.89
56334;BME280;42240;53.626;55.886;2023-04-29T07:14:30;74562.13;;;-145.10;36.66
56334;BME280;42240;53.626;55.886;2023-04-29T07:16:16;74589.78;;;-145.10;36.93
56334;BME280;42240;53.626;55.886;2023-04-29T07:17:52;74572.00;;;-145.10;36.61
56334;BME280;42240;53.626;55.886;2023-04-29T07:19:25;74627.34;;;-145.10;36.70
56334;BME280;42240;53.626;55.886;2023-04-29T07:21:01;74524.56;;;-145.10;36.51
56334;BME280;42240;53.626;55.886;2023-04-29T07:22:35;74530.50;;;-145.10;35.73
56334;BME280;42240;53.626;55.886;2023-04-29T07:24:08;74583.88;;;-145.10;36.10
56334;BME280;42240;53.626;55.886;2023-04-29T07:25:41;74575.97;;;-145.10;36.08
56334;BME280;42240;53.626;55.886;2023-04-29T07:27:14;74573.97;;;-145.10;35.93
56334;BME280;42240;53.626;55.886;2023-04-29T07:28:47;74585.84;;;-145.10;36.43
56334;BME280;42240;53.626;55.886;2023-04-29T07:30:23;74564.09;;;-145.10;35.89
56334;BME280;42240;53.626;55.886;2023-04-29T07:31:57;74629.31;;;-145.10;36.10
56334;BME280;42240;53.626;55.886;2023-04-29T07:33:31;74595.72;;;-145.10;36.11
56334;BME280;42240;53.626;55.886;2023-04-29T07:35:04;74552.25;;;-145.10;36.00
56334;BME280;42240;53.626;55.886;2023-04-29T07:36:37;74623.38;;;-145.10;36.56
56334;BME280;42240;53.626;55.886;2023-04-29T07:38:11;74556.19;;;-145.10;36.32
56334;BME280;42240;53.626;55.886;2023-04-29T07:39:45;74583.88;;;-145.10;36.46
56334;BME280;42240;53.626;55.886;2023-04-29T07:41:18;74587.81;;;-145.10;36.20
56334;BME280;42240;53.626;55.886;2023-04-29T07:42:51;74558.16;;;-145.10;36.17
56334;BME280;42240;53.626;55.886;2023-04-29T07:44:24;74566.06;;;-145.10;36.15
56334;BME280;42240;53.626;55.886;2023-04-29T07:45:57;74536.44;;;-145.10;36.20
56334;BME280;42240;53.626;55.886;2023-04-29T07:47:30;74536.44;;;-145.10;36.12
56334;BME280;42240;53.626;55.886;2023-04-29T07:49:04;74532.47;;;-145.10;35.81
56334;BME280;42240;53.626;55.886;2023-04-29T07:50:38;74512.72;;;-145.10;35.96
56334;BME280;42240;53.626;55.886;2023-04-29T07:52:11;74441.56;;;-145.10;35.55
56334;BME280;42240;53.626;55.886;2023-04-29T07:53:45;74504.81;;;-145.10;35.12
56334;BME280;42240;53.626;55.886;2023-04-29T07:55:18;74504.81;;;-145.10;35.37
56334;BME280;42240;53.626;55.886;2023-04-29T07:56:51;74512.72;;;-145.10;35.32
56334;BME280;42240;53.626;55.886;2023-04-29T07:58:26;74528.53;;;-145.10;35.59
56334;BME280;42240;53.626;55.886;2023-04-29T08:00:01;74443.53;;;-145.10;34.99
56334;BME280;42240;53.626;55.886;2023-04-29T08:01:45;74481.09;;;-145.10;34.47
56334;BME280;42240;53.626;55.886;2023-04-29T08:03:19;74492.94;;;-145.10;34.62
56334;BME280;42240;53.626;55.886;2023-04-29T08:04:54;74496.91;;;-145.10;34.77
56334;BME280;42240;53.626;55.886;2023-04-29T08:06:28;74540.38;;;-145.10;35.37
56334;BME280;42240;53.626;55.886;2023-04-29T08:08:03;74498.88;;;-145.10;34.86
56334;BME280;42240;53.626;55.886;2023-04-29T08:09:36;74490.97;;;-145.10;34.82
56334;BME280;42240;53.626;55.886;2023-04-29T08:11:15;74481.09;;;-145.10;35.00
56334;BME280;42240;53.626;55.886;2023-04-29T08:12:48;74453.41;;;-145.10;34.91
56334;BME280;42240;53.626;55.886;2023-04-29T08:14:21;74441.56;;;-145.10;35.29
56334;BME280;42240;53.626;55.886;2023-04-29T08:15:54;74425.75;;;-145.10;34.82
56334;BME280;42240;53.626;55.886;2023-04-29T08:17:28;74409.94;;;-145.10;34.77
56334;BME280;42240;53.626;55.886;2023-04-29T08:19:01;74449.47;;;-145.10;34.13